sensor_id;sensor_type;location;lat;lon;timestamp;temperature;humidity
48936;DHT22;34745;52.276;10.528;2022-11-15T00:00:32;8.30;8.40
48936;DHT22;34745;52.276;10.528;2022-11-15T00:02:59;8.20;12.50
48936;DHT22;34745;52.276;10.528;2022-11-15T00:05:28;8.20;14.90
48936;DHT22;34745;52.276;10.528;2022-11-15T00:07:56;8.10;16.50
48936;DHT22;34745;52.276;10.528;2022-11-15T00:10:24;8.10;22.00
48936;DHT22;34745;52.276;10.528;2022-11-15T00:12:51;8.10;33.50
48936;DHT22;34745;52.276;10.528;2022-11-15T00:15:18;8.10;33.10
48936;DHT22;34745;52.276;10.528;2022-11-15T00:17:48;8.20;27.20
48936;DHT22;34745;52.276;10.528;2022-11-15T00:20:15;8.20;25.60
48936;DHT22;34745;52.276;10.528;2022-11-15T00:22:44;8.20;25.90
48936;DHT22;34745;52.276;10.528;2022-11-15T00:25:11;8.10;31.50
48936;DHT22;34745;52.276;10.528;2022-11-15T00:27:38;8.10;33.30
48936;DHT22;34745;52.276;10.528;2022-11-15T00:30:06;8.10;36.70
48936;DHT22;34745;52.276;10.528;2022-11-15T00:32:33;8.00;38.10
48936;DHT22;34745;52.276;10.528;2022-11-15T00:35:00;8.00;44.40
48936;DHT22;34745;52.276;10.528;2022-11-15T00:37:27;8.10;44.80
48936;DHT22;34745;52.276;10.528;2022-11-15T00:39:56;8.00;46.50
48936;DHT22;34745;52.276;10.528;2022-11-15T00:42:22;8.00;48.00
48936;DHT22;34745;52.276;10.528;2022-11-15T00:44:50;8.00;50.10
48936;DHT22;34745;52.276;10.528;2022-11-15T00:47:16;8.00;51.80
48936;DHT22;34745;52.276;10.528;2022-11-15T00:49:43;8.00;54.00
48936;DHT22;34745;52.276;10.528;2022-11-15T00:52:10;8.00;52.50
48936;DHT22;34745;52.276;10.528;2022-11-15T00:54:37;8.00;54.60
48936;DHT22;34745;52.276;10.528;2022-11-15T00:57:05;8.00;56.80
48936;DHT22;34745;52.276;10.528;2022-11-15T00:59:32;7.90;55.70
48936;DHT22;34745;52.276;10.528;2022-11-15T01:01:59;7.90;56.50
48936;DHT22;34745;52.276;10.528;2022-11-15T01:04:27;7.90;60.40
48936;DHT22;34745;52.276;10.528;2022-11-15T01:06:54;7.90;56.90
48936;DHT22;34745;52.276;10.528;2022-11-15T01:09:21;7.90;63.70
48936;DHT22;34745;52.276;10.528;2022-11-15T01:11:48;7.90;60.40
48936;DHT22;34745;52.276;10.528;2022-11-15T01:14:16;7.90;65.90
48936;DHT22;34745;52.276;10.528;2022-11-15T01:16:50;7.90;69.20
48936;DHT22;34745;52.276;10.528;2022-11-15T01:19:18;7.90;69.50
48936;DHT22;34745;52.276;10.528;2022-11-15T01:21:45;7.80;74.80
48936;DHT22;34745;52.276;10.528;2022-11-15T01:24:12;7.80;84.10
48936;DHT22;34745;52.276;10.528;2022-11-15T01:26:39;7.80;87.40
48936;DHT22;34745;52.276;10.528;2022-11-15T01:29:07;7.90;86.90
48936;DHT22;34745;52.276;10.528;2022-11-15T01:31:35;8.00;91.10
48936;DHT22;34745;52.276;10.528;2022-11-15T01:34:02;7.80;87.60
48936;DHT22;34745;52.276;10.528;2022-11-15T01:36:29;7.80;87.20
48936;DHT22;34745;52.276;10.528;2022-11-15T01:38:58;7.80;92.70
48936;DHT22;34745;52.276;10.528;2022-11-15T01:41:27;7.70;92.40
48936;DHT22;34745;52.276;10.528;2022-11-15T01:43:56;7.70;99.80
48936;DHT22;34745;52.276;10.528;2022-11-15T01:46:28;7.70;99.90
48936;DHT22;34745;52.276;10.528;2022-11-15T01:49:01;7.70;99.90
48936;DHT22;34745;52.276;10.528;2022-11-15T01:51:31;7.80;99.90
48936;DHT22;34745;52.276;10.528;2022-11-15T01:54:03;7.70;99.90
48936;DHT22;34745;52.276;10.528;2022-11-15T01:56:36;7.60;99.90
48936;DHT22;34745;52.276;10.528;2022-11-15T01:59:06;7.60;99.90
48936;DHT22;34745;52.276;10.528;2022-11-15T02:01:35;7.60;99.90
48936;DHT22;34745;52.276;10.528;2022-11-15T02:04:07;7.60;99.90
48936;DHT22;34745;52.276;10.528;2022-11-15T02:06:37;7.70;99.90
48936;DHT22;34745;52.276;10.528;2022-11-15T02:09:04;7.70;99.90
48936;DHT22;34745;52.276;10.528;2022-11-15T02:11:31;7.70;99.90
48936;DHT22;34745;52.276;10.528;2022-11-15T02:14:00;7.60;99.90
48936;DHT22;34745;52.276;10.528;2022-11-15T02:16:31;7.60;99.90
48936;DHT22;34745;52.276;10.528;2022-11-15T02:19:10;7.60;99.90
48936;DHT22;34745;52.276;10.528;2022-11-15T02:21:43;7.60;99.90
48936;DHT22;34745;52.276;10.528;2022-11-15T02:24:41;7.60;99.90
48936;DHT22;34745;52.276;10.528;2022-11-15T02:27:33;7.60;99.90
48936;DHT22;34745;52.276;10.528;2022-11-15T02:30:24;7.60;99.90
48936;DHT22;34745;52.276;10.528;2022-11-15T02:32:54;7.60;99.90
48936;DHT22;34745;52.276;10.528;2022-11-15T02:35:29;7.70;99.90
48936;DHT22;34745;52.276;10.528;2022-11-15T02:38:05;7.80;99.90
48936;DHT22;34745;52.276;10.528;2022-11-15T02:40:40;7.80;99.90
48936;DHT22;34745;52.276;10.528;2022-11-15T02:43:10;7.80;99.90
48936;DHT22;34745;52.276;10.528;2022-11-15T02:46:03;7.80;99.90
48936;DHT22;34745;52.276;10.528;2022-11-15T02:48:32;7.90;99.90
48936;DHT22;34745;52.276;10.528;2022-11-15T02:51:01;7.80;99.90
48936;DHT22;34745;52.276;10.528;2022-11-15T02:53:28;7.90;99.90
48936;DHT22;34745;52.276;10.528;2022-11-15T02:55:56;7.90;99.90
48936;DHT22;34745;52.276;10.528;2022-11-15T02:58:40;7.90;99.90
48936;DHT22;34745;52.276;10.528;2022-11-15T03:01:19;7.90;99.90
48936;DHT22;34745;52.276;10.528;2022-11-15T03:03:55;7.90;99.90
48936;DHT22;34745;52.276;10.528;2022-11-15T03:06:32;7.90;99.90
48936;DHT22;34745;52.276;10.528;2022-11-15T03:09:05;7.90;99.90
48936;DHT22;34745;52.276;10.528;2022-11-15T03:11:36;8.00;99.90
48936;DHT22;34745;52.276;10.528;2022-11-15T03:14:12;8.10;99.90
48936;DHT22;34745;52.276;10.528;2022-11-15T03:16:49;8.10;99.90
48936;DHT22;34745;52.276;10.528;2022-11-15T03:19:21;8.20;99.90
48936;DHT22;34745;52.276;10.528;2022-11-15T03:21:53;8.30;99.90
48936;DHT22;34745;52.276;10.528;2022-11-15T03:24:23;8.50;99.90
48936;DHT22;34745;52.276;10.528;2022-11-15T03:26:53;8.50;99.90
48936;DHT22;34745;52.276;10.528;2022-11-15T03:29:24;8.70;99.90
48936;DHT22;34745;52.276;10.528;2022-11-15T03:32:00;8.80;99.90
48936;DHT22;34745;52.276;10.528;2022-11-15T03:34:32;8.80;99.90
48936;DHT22;34745;52.276;10.528;2022-11-15T03:37:02;8.80;99.90
48936;DHT22;34745;52.276;10.528;2022-11-15T03:39:29;8.90;99.90
48936;DHT22;34745;52.276;10.528;2022-11-15T03:42:04;9.00;99.90
48936;DHT22;34745;52.276;10.528;2022-11-15T03:44:39;9.00;99.90
48936;DHT22;34745;52.276;10.528;2022-11-15T03:47:12;9.10;99.90
48936;DHT22;34745;52.276;10.528;2022-11-15T03:49:45;9.00;99.90
48936;DHT22;34745;52.276;10.528;2022-11-15T03:52:17;9.00;99.90
48936;DHT22;34745;52.276;10.528;2022-11-15T03:54:50;9.00;99.90
48936;DHT22;34745;52.276;10.528;2022-11-15T03:57:17;9.00;99.90
48936;DHT22;34745;52.276;10.528;2022-11-15T03:59:44;9.10;99.90
48936;DHT22;34745;52.276;10.528;2022-11-15T04:02:13;9.10;99.90
48936;DHT22;34745;52.276;10.528;2022-11-15T04:04:40;9.10;99.90
48936;DHT22;34745;52.276;10.528;2022-11-15T04:07:07;9.10;99.90
48936;DHT22;34745;52.276;10.528;2022-11-15T04:09:35;9.10;99.90
48936;DHT22;34745;52.276;10.528;2022-11-15T04:12:21;9.00;99.90
48936;DHT22;34745;52.276;10.528;2022-11-15T04:15:00;9.20;99.90
48936;DHT22;34745;52.276;10.528;2022-11-15T04:17:39;9.00;99.90
48936;DHT22;34745;52.276;10.528;2022-11-15T04:20:10;8.90;99.90
48936;DHT22;34745;52.276;10.528;2022-11-15T04:22:57;9.00;99.90
48936;DHT22;34745;52.276;10.528;2022-11-15T04:25:43;9.00;99.90
48936;DHT22;34745;52.276;10.528;2022-11-15T04:28:11;8.90;99.90
48936;DHT22;34745;52.276;10.528;2022-11-15T04:30:39;8.80;99.90
48936;DHT22;34745;52.276;10.528;2022-11-15T04:33:07;8.90;99.90
48936;DHT22;34745;52.276;10.528;2022-11-15T04:35:34;8.80;99.90
48936;DHT22;34745;52.276;10.528;2022-11-15T04:38:02;8.70;99.90
48936;DHT22;34745;52.276;10.528;2022-11-15T04:40:30;8.70;99.90
48936;DHT22;34745;52.276;10.528;2022-11-15T04:42:57;8.70;99.90
48936;DHT22;34745;52.276;10.528;2022-11-15T04:45:29;8.60;99.90
48936;DHT22;34745;52.276;10.528;2022-11-15T04:47:56;8.60;99.90
48936;DHT22;34745;52.276;10.528;2022-11-15T04:50:25;8.60;99.90
48936;DHT22;34745;52.276;10.528;2022-11-15T04:52:58;8.60;99.90
48936;DHT22;34745;52.276;10.528;2022-11-15T04:55:26;8.60;99.90
48936;DHT22;34745;52.276;10.528;2022-11-15T04:58:00;8.60;99.90
48936;DHT22;34745;52.276;10.528;2022-11-15T05:00:28;8.60;99.90
48936;DHT22;34745;52.276;10.528;2022-11-15T05:02:56;8.50;99.90
48936;DHT22;34745;52.276;10.528;2022-11-15T05:05:43;8.50;99.90
48936;DHT22;34745;52.276;10.528;2022-11-15T05:08:10;8.50;99.90
48936;DHT22;34745;52.276;10.528;2022-11-15T05:10:37;8.50;99.90
48936;DHT22;34745;52.276;10.528;2022-11-15T05:13:04;8.50;99.90
48936;DHT22;34745;52.276;10.528;2022-11-15T05:15:32;8.50;99.90
48936;DHT22;34745;52.276;10.528;2022-11-15T05:17:59;8.50;99.90
48936;DHT22;34745;52.276;10.528;2022-11-15T05:20:27;8.50;99.90
48936;DHT22;34745;52.276;10.528;2022-11-15T05:22:55;8.60;99.90
48936;DHT22;34745;52.276;10.528;2022-11-15T05:25:22;8.60;99.90
48936;DHT22;34745;52.276;10.528;2022-11-15T05:27:50;8.60;99.90
48936;DHT22;34745;52.276;10.528;2022-11-15T05:30:17;8.60;99.90
48936;DHT22;34745;52.276;10.528;2022-11-15T05:32:44;8.60;99.90
48936;DHT22;34745;52.276;10.528;2022-11-15T05:35:15;8.60;99.90
48936;DHT22;34745;52.276;10.528;2022-11-15T05:37:44;8.60;99.90
48936;DHT22;34745;52.276;10.528;2022-11-15T05:40:13;8.60;99.90
48936;DHT22;34745;52.276;10.528;2022-11-15T05:42:40;8.60;99.90
48936;DHT22;34745;52.276;10.528;2022-11-15T05:45:08;8.60;99.90
48936;DHT22;34745;52.276;10.528;2022-11-15T05:47:36;8.60;99.90
48936;DHT22;34745;52.276;10.528;2022-11-15T05:50:05;8.50;99.90
48936;DHT22;34745;52.276;10.528;2022-11-15T05:52:35;8.50;99.90
48936;DHT22;34745;52.276;10.528;2022-11-15T05:55:04;8.50;99.90
48936;DHT22;34745;52.276;10.528;2022-11-15T05:57:35;8.60;99.90
48936;DHT22;34745;52.276;10.528;2022-11-15T06:00:03;8.60;99.90
48936;DHT22;34745;52.276;10.528;2022-11-15T06:02:30;8.60;99.90
48936;DHT22;34745;52.276;10.528;2022-11-15T06:04:58;8.60;99.90
48936;DHT22;34745;52.276;10.528;2022-11-15T06:07:25;8.60;99.90
48936;DHT22;34745;52.276;10.528;2022-11-15T06:09:52;8.50;99.90
48936;DHT22;34745;52.276;10.528;2022-11-15T06:12:19;8.50;99.90
48936;DHT22;34745;52.276;10.528;2022-11-15T06:14:47;8.50;99.90
48936;DHT22;34745;52.276;10.528;2022-11-15T06:17:14;8.40;99.90
48936;DHT22;34745;52.276;10.528;2022-11-15T06:19:41;8.50;99.90
48936;DHT22;34745;52.276;10.528;2022-11-15T06:22:08;8.40;99.90
48936;DHT22;34745;52.276;10.528;2022-11-15T06:24:36;8.40;99.90
48936;DHT22;34745;52.276;10.528;2022-11-15T06:27:03;8.40;99.90
48936;DHT22;34745;52.276;10.528;2022-11-15T06:29:30;8.30;99.90
48936;DHT22;34745;52.276;10.528;2022-11-15T06:31:58;8.30;99.90
48936;DHT22;34745;52.276;10.528;2022-11-15T06:34:26;8.30;99.90
48936;DHT22;34745;52.276;10.528;2022-11-15T06:36:53;8.30;99.90
48936;DHT22;34745;52.276;10.528;2022-11-15T06:39:20;8.30;99.90
48936;DHT22;34745;52.276;10.528;2022-11-15T06:41:47;8.30;99.90
48936;DHT22;34745;52.276;10.528;2022-11-15T06:44:14;8.30;99.90
48936;DHT22;34745;52.276;10.528;2022-11-15T06:46:41;8.30;99.90
48936;DHT22;34745;52.276;10.528;2022-11-15T06:49:10;8.30;99.90
48936;DHT22;34745;52.276;10.528;2022-11-15T06:51:36;8.40;99.90
48936;DHT22;34745;52.276;10.528;2022-11-15T06:54:04;8.30;99.90
48936;DHT22;34745;52.276;10.528;2022-11-15T06:56:31;8.30;99.90
48936;DHT22;34745;52.276;10.528;2022-11-15T06:58:58;8.30;99.90
48936;DHT22;34745;52.276;10.528;2022-11-15T07:01:25;8.30;99.90
48936;DHT22;34745;52.276;10.528;2022-11-15T07:03:52;8.30;99.90
48936;DHT22;34745;52.276;10.528;2022-11-15T07:06:21;8.30;99.90
48936;DHT22;34745;52.276;10.528;2022-11-15T07:08:48;8.30;99.90
48936;DHT22;34745;52.276;10.528;2022-11-15T07:11:15;8.30;99.90
48936;DHT22;34745;52.276;10.528;2022-11-15T07:13:42;8.20;99.90
48936;DHT22;34745;52.276;10.528;2022-11-15T07:16:09;8.20;99.90
48936;DHT22;34745;52.276;10.528;2022-11-15T07:18:38;8.20;99.90
48936;DHT22;34745;52.276;10.528;2022-11-15T07:21:07;8.20;99.90
48936;DHT22;34745;52.276;10.528;2022-11-15T07:23:37;8.20;99.90
48936;DHT22;34745;52.276;10.528;2022-11-15T07:26:05;8.20;99.90
48936;DHT22;34745;52.276;10.528;2022-11-15T07:28:32;8.30;99.90
48936;DHT22;34745;52.276;10.528;2022-11-15T07:31:02;8.30;99.90
48936;DHT22;34745;52.276;10.528;2022-11-15T07:33:29;8.30;99.90
48936;DHT22;34745;52.276;10.528;2022-11-15T07:35:59;8.30;99.90
48936;DHT22;34745;52.276;10.528;2022-11-15T07:38:26;8.40;99.90
48936;DHT22;34745;52.276;10.528;2022-11-15T07:40:57;8.40;99.90
48936;DHT22;34745;52.276;10.528;2022-11-15T07:43:24;8.40;99.90
48936;DHT22;34745;52.276;10.528;2022-11-15T07:45:52;8.50;99.90
48936;DHT22;34745;52.276;10.528;2022-11-15T07:48:24;8.60;99.90
48936;DHT22;34745;52.276;10.528;2022-11-15T07:50:57;8.60;99.90
48936;DHT22;34745;52.276;10.528;2022-11-15T07:53:25;8.70;99.90
48936;DHT22;34745;52.276;10.528;2022-11-15T07:55:52;8.70;99.90
48936;DHT22;34745;52.276;10.528;2022-11-15T07:58:21;8.90;99.90
48936;DHT22;34745;52.276;10.528;2022-11-15T08:00:48;8.80;99.90
48936;DHT22;34745;52.276;10.528;2022-11-15T08:03:16;8.90;99.90
48936;DHT22;34745;52.276;10.528;2022-11-15T08:05:50;9.00;99.90
48936;DHT22;34745;52.276;10.528;2022-11-15T08:08:17;9.00;99.90
48936;DHT22;34745;52.276;10.528;2022-11-15T08:10:44;9.10;99.90
48936;DHT22;34745;52.276;10.528;2022-11-15T08:13:12;9.20;99.90
48936;DHT22;34745;52.276;10.528;2022-11-15T08:15:40;9.30;99.90
48936;DHT22;34745;52.276;10.528;2022-11-15T08:18:10;9.40;99.90
48936;DHT22;34745;52.276;10.528;2022-11-15T08:20:38;9.50;99.90
48936;DHT22;34745;52.276;10.528;2022-11-15T08:23:07;9.60;99.90
48936;DHT22;34745;52.276;10.528;2022-11-15T08:25:35;9.70;99.90
48936;DHT22;34745;52.276;10.528;2022-11-15T08:28:04;9.70;99.90
48936;DHT22;34745;52.276;10.528;2022-11-15T08:30:35;9.70;99.90
48936;DHT22;34745;52.276;10.528;2022-11-15T08:33:04;9.70;99.90
48936;DHT22;34745;52.276;10.528;2022-11-15T08:35:31;9.80;99.90
48936;DHT22;34745;52.276;10.528;2022-11-15T08:37:58;9.90;99.90
48936;DHT22;34745;52.276;10.528;2022-11-15T08:40:25;9.90;99.90
48936;DHT22;34745;52.276;10.528;2022-11-15T08:42:53;10.00;99.90
48936;DHT22;34745;52.276;10.528;2022-11-15T08:45:20;10.10;99.90
48936;DHT22;34745;52.276;10.528;2022-11-15T08:47:48;10.10;99.90
48936;DHT22;34745;52.276;10.528;2022-11-15T08:50:21;10.20;99.90
48936;DHT22;34745;52.276;10.528;2022-11-15T08:52:48;10.20;99.90
48936;DHT22;34745;52.276;10.528;2022-11-15T08:55:15;10.20;99.90
48936;DHT22;34745;52.276;10.528;2022-11-15T08:57:43;10.20;99.90
48936;DHT22;34745;52.276;10.528;2022-11-15T09:00:12;10.20;99.90
48936;DHT22;34745;52.276;10.528;2022-11-15T09:02:40;10.20;99.90
48936;DHT22;34745;52.276;10.528;2022-11-15T09:05:08;10.20;99.90
48936;DHT22;34745;52.276;10.528;2022-11-15T09:07:36;10.20;99.90
48936;DHT22;34745;52.276;10.528;2022-11-15T09:10:04;10.30;99.90
48936;DHT22;34745;52.276;10.528;2022-11-15T09:12:31;10.30;99.90
48936;DHT22;34745;52.276;10.528;2022-11-15T09:14:58;10.30;99.90
48936;DHT22;34745;52.276;10.528;2022-11-15T09:17:25;10.30;99.90
48936;DHT22;34745;52.276;10.528;2022-11-15T09:19:52;10.20;99.90
48936;DHT22;34745;52.276;10.528;2022-11-15T09:22:19;10.30;99.90
48936;DHT22;34745;52.276;10.528;2022-11-15T09:24:48;10.20;99.90
48936;DHT22;34745;52.276;10.528;2022-11-15T09:27:14;10.20;99.90
48936;DHT22;34745;52.276;10.528;2022-11-15T09:29:42;10.20;99.90
48936;DHT22;34745;52.276;10.528;2022-11-15T09:32:09;10.20;99.90
48936;DHT22;34745;52.276;10.528;2022-11-15T09:34:36;10.20;99.90
48936;DHT22;34745;52.276;10.528;2022-11-15T09:37:03;10.20;99.90
48936;DHT22;34745;52.276;10.528;2022-11-15T09:39:30;10.30;99.90
48936;DHT22;34745;52.276;10.528;2022-11-15T09:42:23;10.40;99.90
48936;DHT22;34745;52.276;10.528;2022-11-15T09:44:59;10.50;99.90
48936;DHT22;34745;52.276;10.528;2022-11-15T09:47:47;10.60;85.80
48936;DHT22;34745;52.276;10.528;2022-11-15T09:50:27;10.70;71.90
48936;DHT22;34745;52.276;10.528;2022-11-15T09:52:56;10.80;70.20
48936;DHT22;34745;52.276;10.528;2022-11-15T09:55:32;10.90;56.90
48936;DHT22;34745;52.276;10.528;2022-11-15T09:58:14;11.10;51.30
48936;DHT22;34745;52.276;10.528;2022-11-15T10:00:45;11.40;33.70
48936;DHT22;34745;52.276;10.528;2022-11-15T10:03:23;11.70;11.50
48936;DHT22;34745;52.276;10.528;2022-11-15T10:05:53;12.30;1.00
48936;DHT22;34745;52.276;10.528;2022-11-15T10:11:25;13.70;1.00
48936;DHT22;34745;52.276;10.528;2022-11-15T10:14:15;14.40;1.00
48936;DHT22;34745;52.276;10.528;2022-11-15T10:17:16;14.90;1.00
48936;DHT22;34745;52.276;10.528;2022-11-15T10:19:56;15.40;1.00
48936;DHT22;34745;52.276;10.528;2022-11-15T10:22:37;15.40;1.00
48936;DHT22;34745;52.276;10.528;2022-11-15T10:25:20;15.60;1.00
48936;DHT22;34745;52.276;10.528;2022-11-15T10:27:53;15.80;1.00
48936;DHT22;34745;52.276;10.528;2022-11-15T10:30:23;16.10;1.00
48936;DHT22;34745;52.276;10.528;2022-11-15T10:32:50;16.10;1.00
48936;DHT22;34745;52.276;10.528;2022-11-15T10:35:24;16.30;1.00
48936;DHT22;34745;52.276;10.528;2022-11-15T10:37:52;16.40;1.00
48936;DHT22;34745;52.276;10.528;2022-11-15T10:40:23;16.40;1.00
48936;DHT22;34745;52.276;10.528;2022-11-15T10:43:05;16.20;1.00
48936;DHT22;34745;52.276;10.528;2022-11-15T10:45:34;15.70;1.00
48936;DHT22;34745;52.276;10.528;2022-11-15T10:48:22;15.30;1.00
48936;DHT22;34745;52.276;10.528;2022-11-15T10:50:52;15.20;1.00
48936;DHT22;34745;52.276;10.528;2022-11-15T10:53:27;15.00;1.00
48936;DHT22;34745;52.276;10.528;2022-11-15T10:56:01;14.80;1.00
48936;DHT22;34745;52.276;10.528;2022-11-15T10:58:36;14.50;1.00
48936;DHT22;34745;52.276;10.528;2022-11-15T11:01:13;14.30;1.00
48936;DHT22;34745;52.276;10.528;2022-11-15T11:03:42;14.30;1.00
48936;DHT22;34745;52.276;10.528;2022-11-15T11:06:12;14.30;1.00
48936;DHT22;34745;52.276;10.528;2022-11-15T11:08:40;14.30;1.00
48936;DHT22;34745;52.276;10.528;2022-11-15T11:11:07;14.30;1.00
48936;DHT22;34745;52.276;10.528;2022-11-15T11:13:37;14.20;1.00
48936;DHT22;34745;52.276;10.528;2022-11-15T11:16:40;14.30;1.00
48936;DHT22;34745;52.276;10.528;2022-11-15T11:19:28;14.40;1.00
48936;DHT22;34745;52.276;10.528;2022-11-15T11:22:03;14.40;1.00
48936;DHT22;34745;52.276;10.528;2022-11-15T11:24:36;14.40;1.00
48936;DHT22;34745;52.276;10.528;2022-11-15T11:27:17;14.40;1.00
48936;DHT22;34745;52.276;10.528;2022-11-15T11:29:57;14.30;1.00
48936;DHT22;34745;52.276;10.528;2022-11-15T11:33:05;14.30;1.00
48936;DHT22;34745;52.276;10.528;2022-11-15T11:35:41;14.40;1.00
48936;DHT22;34745;52.276;10.528;2022-11-15T11:38:32;14.30;1.00
48936;DHT22;34745;52.276;10.528;2022-11-15T11:41:10;14.20;1.00
48936;DHT22;34745;52.276;10.528;2022-11-15T11:43:51;14.00;1.00
48936;DHT22;34745;52.276;10.528;2022-11-15T11:46:52;13.80;1.00
48936;DHT22;34745;52.276;10.528;2022-11-15T11:49:27;13.60;1.00
48936;DHT22;34745;52.276;10.528;2022-11-15T11:52:00;13.60;1.00
48936;DHT22;34745;52.276;10.528;2022-11-15T11:54:34;13.60;1.00
48936;DHT22;34745;52.276;10.528;2022-11-15T11:57:07;13.60;1.00
48936;DHT22;34745;52.276;10.528;2022-11-15T11:59:42;13.60;1.00
48936;DHT22;34745;52.276;10.528;2022-11-15T12:02:14;13.60;1.00
48936;DHT22;34745;52.276;10.528;2022-11-15T12:04:50;13.40;1.00
48936;DHT22;34745;52.276;10.528;2022-11-15T12:07:23;13.40;1.00
48936;DHT22;34745;52.276;10.528;2022-11-15T12:09:55;13.50;1.00
48936;DHT22;34745;52.276;10.528;2022-11-15T12:12:30;13.60;1.00
48936;DHT22;34745;52.276;10.528;2022-11-15T12:15:02;13.80;1.00
48936;DHT22;34745;52.276;10.528;2022-11-15T12:17:31;14.00;1.00
48936;DHT22;34745;52.276;10.528;2022-11-15T12:20:02;14.20;1.00
48936;DHT22;34745;52.276;10.528;2022-11-15T12:22:38;14.20;1.00
48936;DHT22;34745;52.276;10.528;2022-11-15T12:25:13;14.10;1.00
48936;DHT22;34745;52.276;10.528;2022-11-15T12:27:44;14.00;1.00
48936;DHT22;34745;52.276;10.528;2022-11-15T12:30:14;14.00;1.00
48936;DHT22;34745;52.276;10.528;2022-11-15T12:32:51;13.90;1.00
48936;DHT22;34745;52.276;10.528;2022-11-15T12:35:32;13.90;1.00
48936;DHT22;34745;52.276;10.528;2022-11-15T12:38:00;13.90;1.00
48936;DHT22;34745;52.276;10.528;2022-11-15T12:40:31;14.00;1.00
48936;DHT22;34745;52.276;10.528;2022-11-15T12:46:02;14.00;1.00
48936;DHT22;34745;52.276;10.528;2022-11-15T12:48:57;14.00;1.00
48936;DHT22;34745;52.276;10.528;2022-11-15T12:54:55;13.80;1.00
48936;DHT22;34745;52.276;10.528;2022-11-15T12:57:40;13.80;1.00
48936;DHT22;34745;52.276;10.528;2022-11-15T13:03:26;13.60;1.00
48936;DHT22;34745;52.276;10.528;2022-11-15T13:08:49;13.60;1.00
48936;DHT22;34745;52.276;10.528;2022-11-15T13:11:44;13.50;1.00
48936;DHT22;34745;52.276;10.528;2022-11-15T13:14:39;13.50;1.00
48936;DHT22;34745;52.276;10.528;2022-11-15T13:17:22;13.50;1.00
48936;DHT22;34745;52.276;10.528;2022-11-15T13:19:55;13.40;1.00
48936;DHT22;34745;52.276;10.528;2022-11-15T13:22:25;13.40;1.00
48936;DHT22;34745;52.276;10.528;2022-11-15T13:25:16;13.40;1.00
48936;DHT22;34745;52.276;10.528;2022-11-15T13:27:47;13.40;1.00
48936;DHT22;34745;52.276;10.528;2022-11-15T13:30:20;13.40;1.00
48936;DHT22;34745;52.276;10.528;2022-11-15T13:32:47;13.40;1.00
48936;DHT22;34745;52.276;10.528;2022-11-15T13:35:20;13.40;1.00
48936;DHT22;34745;52.276;10.528;2022-11-15T13:37:48;13.30;1.00
48936;DHT22;34745;52.276;10.528;2022-11-15T13:40:26;13.30;1.00
48936;DHT22;34745;52.276;10.528;2022-11-15T13:43:22;13.30;1.00
48936;DHT22;34745;52.276;10.528;2022-11-15T13:46:11;13.30;1.00
48936;DHT22;34745;52.276;10.528;2022-11-15T13:48:39;13.30;1.00
48936;DHT22;34745;52.276;10.528;2022-11-15T13:51:09;13.30;1.00
48936;DHT22;34745;52.276;10.528;2022-11-15T13:53:44;13.20;1.00
48936;DHT22;34745;52.276;10.528;2022-11-15T13:56:13;13.20;1.00
48936;DHT22;34745;52.276;10.528;2022-11-15T13:58:42;13.20;1.00
48936;DHT22;34745;52.276;10.528;2022-11-15T14:01:16;13.10;1.00
48936;DHT22;34745;52.276;10.528;2022-11-15T14:03:52;13.10;1.00
48936;DHT22;34745;52.276;10.528;2022-11-15T14:06:22;13.10;1.00
48936;DHT22;34745;52.276;10.528;2022-11-15T14:11:53;13.10;1.00
48936;DHT22;34745;52.276;10.528;2022-11-15T14:14:23;13.00;1.00
48936;DHT22;34745;52.276;10.528;2022-11-15T14:16:52;13.00;1.00
48936;DHT22;34745;52.276;10.528;2022-11-15T14:19:35;13.00;1.00
48936;DHT22;34745;52.276;10.528;2022-11-15T14:22:27;13.00;1.00
48936;DHT22;34745;52.276;10.528;2022-11-15T14:25:13;13.00;1.00
48936;DHT22;34745;52.276;10.528;2022-11-15T14:27:41;13.00;1.00
48936;DHT22;34745;52.276;10.528;2022-11-15T14:30:14;12.90;1.00
48936;DHT22;34745;52.276;10.528;2022-11-15T14:32:44;12.90;1.00
48936;DHT22;34745;52.276;10.528;2022-11-15T14:35:15;12.90;1.00
48936;DHT22;34745;52.276;10.528;2022-11-15T14:37:42;12.90;1.00
48936;DHT22;34745;52.276;10.528;2022-11-15T14:40:13;12.90;1.00
48936;DHT22;34745;52.276;10.528;2022-11-15T14:42:40;12.90;1.00
48936;DHT22;34745;52.276;10.528;2022-11-15T14:45:11;12.90;1.00
48936;DHT22;34745;52.276;10.528;2022-11-15T14:47:40;12.90;1.00
48936;DHT22;34745;52.276;10.528;2022-11-15T14:50:11;12.90;1.00
48936;DHT22;34745;52.276;10.528;2022-11-15T14:52:38;12.80;1.00
48936;DHT22;34745;52.276;10.528;2022-11-15T14:55:14;12.80;1.00
48936;DHT22;34745;52.276;10.528;2022-11-15T14:57:42;12.80;1.00
48936;DHT22;34745;52.276;10.528;2022-11-15T15:00:10;12.80;1.00
48936;DHT22;34745;52.276;10.528;2022-11-15T15:02:37;12.70;1.00
48936;DHT22;34745;52.276;10.528;2022-11-15T15:05:14;12.70;1.00
48936;DHT22;34745;52.276;10.528;2022-11-15T15:07:41;12.70;1.00
48936;DHT22;34745;52.276;10.528;2022-11-15T15:10:09;12.60;1.00
48936;DHT22;34745;52.276;10.528;2022-11-15T15:12:56;12.60;1.00
48936;DHT22;34745;52.276;10.528;2022-11-15T15:15:25;12.50;1.00
48936;DHT22;34745;52.276;10.528;2022-11-15T15:17:53;12.50;1.00
48936;DHT22;34745;52.276;10.528;2022-11-15T15:20:21;12.50;1.00
48936;DHT22;34745;52.276;10.528;2022-11-15T15:22:48;12.50;1.00
48936;DHT22;34745;52.276;10.528;2022-11-15T15:25:23;12.40;1.00
48936;DHT22;34745;52.276;10.528;2022-11-15T15:27:53;12.40;1.00
48936;DHT22;34745;52.276;10.528;2022-11-15T15:30:21;12.30;1.00
48936;DHT22;34745;52.276;10.528;2022-11-15T15:32:48;12.30;2.40
48936;DHT22;34745;52.276;10.528;2022-11-15T15:35:16;12.30;6.20
48936;DHT22;34745;52.276;10.528;2022-11-15T15:37:46;12.30;7.10
48936;DHT22;34745;52.276;10.528;2022-11-15T15:40:16;12.30;9.20
48936;DHT22;34745;52.276;10.528;2022-11-15T15:42:43;12.30;12.20
48936;DHT22;34745;52.276;10.528;2022-11-15T15:45:11;12.20;15.40
48936;DHT22;34745;52.276;10.528;2022-11-15T15:47:38;12.20;16.60
48936;DHT22;34745;52.276;10.528;2022-11-15T15:50:17;12.20;21.00
48936;DHT22;34745;52.276;10.528;2022-11-15T15:52:48;12.20;23.30
48936;DHT22;34745;52.276;10.528;2022-11-15T15:55:15;12.10;24.80
48936;DHT22;34745;52.276;10.528;2022-11-15T15:57:43;12.10;26.50
48936;DHT22;34745;52.276;10.528;2022-11-15T16:00:11;12.10;27.80
48936;DHT22;34745;52.276;10.528;2022-11-15T16:02:38;12.20;24.40
48936;DHT22;34745;52.276;10.528;2022-11-15T16:05:07;12.10;21.90
48936;DHT22;34745;52.276;10.528;2022-11-15T16:07:34;12.10;20.60
48936;DHT22;34745;52.276;10.528;2022-11-15T16:10:16;12.10;21.00
48936;DHT22;34745;52.276;10.528;2022-11-15T16:12:44;12.10;20.80
48936;DHT22;34745;52.276;10.528;2022-11-15T16:15:11;12.10;18.90